Terminal Aerodrome Forecast
Issued by NWS Cleveland, OH

Home | Current Version | Previous Version | Graphics & Text | Print | Product List | Glossary On
Versions: 1 2 3 4 5 6 7 8 9 10 11 12 13 14 15 16 17 18 19 20 21 22 23
004
FTUS41 KCLE 011125
TAFMFD
TAF
KMFD 011125Z 0112/0212 23007KT 2SM -DZ BR OVC003
     FM011300 22008KT 3SM -DZ BR OVC003
     FM011600 29006KT P6SM OVC015
     FM020000 VRB03KT P6SM OVC035
     FM020400 VRB03KT 4SM -RA BR OVC003
     FM021100 29005KT 2SM BR OVC003=

USA.gov is the U.S. government's official web portal to all federal, state and local government web resources and services.